Jueves, 24 de Abril del 2014

portal contactenos mapa del sitio buscar Revisar Correo Corporativo

Reporte METAR Consolidado

|| Reporte TAF Consolidado ||

Informe METAR emitido cada hora.

METAR

ESTACIÓN

AEROPUERTO

HORA UTC

DESCRIPCIÓN

SLGM

Guayaramerín

10-49S|65-20W

14:00

SLGM 241400Z 17004KT 7000 VCSH BKN008 FEW020CB BKN070 26/24 Q1015 A2999 HR92 CB/SH NE/NW=

SLRI

Riberalta

11-00S|66-04W

14:00

SLRI 241400Z 14006KT 3000 -RA BKN004 OVC070 23/23 Q1016 A3002 HR100=

SLCO

Cobija

11-02S|68-47W

14:00

SLCO 241400Z 15008KT 9999 BKN008 BKN080 26/23 Q1016 A3001 988.8 HR86=

SLJO

San Joaquin

13-03S|64-39W

14:00

SLJO 241400Z 14008KT 9999 SCT017 BKN080 26/23 Q1015 A2999 HR81 RWY OPR C212=

SLRA

San Ramón

13-15S|64-36W

14:00

SLRA 241400Z 14010KT 9999 FEW015 BKN080 27/23 Q1017 A3003 HR79 RWY OPR C212=

SLMG

San Magdalena

13-15S|64-03W

14:00

SLMG 241400Z 14008KT 9999 BKN080 27/21 Q1017 A3005 HR70 RWY NML=

SLBU

Baures

13-39S|63-42W

14:00

SLBU 241400Z 14006KT 9999 BKN080 27/23 Q1017 A3004 HR80 RWY NML=

SLSA

Santa Ana de Yacuma

13-45S|65-26W

14:00

SLSA 241400Z 14012KT 9999 SCT017 BKN080 27/22 Q1016 A3002 HR76=

SLSR

Santa Rosa

14-04S|66-47W

14:00

SLSR 241400Z 12010KT 9999 FEW017 BKN080 27/22 Q1013 A2993 HR76 RWY NML=

SLRY

Reyes

14-18S|67-21W

14:00

SLRY 241400Z 18008KT 9999 BKN015 27/23 Q1019 A3009 HR78 RWY WET OPR 1 000M C206=

SLRQ

Rurrenabaque

14-25S|67-29W

14:00

SLRQ 241400Z 18008KT 9999 SCT017 SCT200 29/25 Q1018 A3006 HR78=

SLAP

Apolo

14-44S|68-24W

-

SLAP WO ATTN=

SLTR

Trinidad

14-49S|64-54W

14:00

SLTR 241400Z 17010KT 9999 FEW010 SCT070 27/21 Q1017 A3005 998.9 HR71 CI=

SLSB

San Borja

14-51S|66-44W

14:00

SLSB 241400Z 12012G22KT 9999 SCT020 27/21 Q1017 A3004 HR71 AC RWY NML=

SLSM

San Ignacio de Moxos

14-57S|65-38W

14:00

SLSM 241400Z 12012KT 9999 FEW015 26/22 Q1013 A3004 HR81 RWY OPR C206=

SLAS

Ascención de Guarayos

15-55S|63-09W

14:00

SLAS 241400Z 18010KT 9999 FEW017 26/22 Q1019 A3009 HR76 RWY NML =

SLCP

Concepción

16-08S|62-01W

14:00

SLCP 241400Z 18010KT 9999 SCT017 25/21 Q1020 A3012 HR84 RWY NML =

SLLP

Internaciónal El Alto

16-08S|68-10W

14:00

SLLP 241400Z VRB02KT 9999 FEW004 SCT014 BKN200 08/03 Q1041 A3074 630.2 P93XX HZ SW/W/NW HR72 NOSIG=

SLJV

San Javier

16-16S|62-28W

14:00

SLJV 241400Z 00000KT 9999 BKN013 22/20 Q1017 A3003 HR86 RWY NML =

SLTI

San Matías

16-20S|58-24W

14:00

SLTI 241400Z 00000KT 9999 BKN017 29/25 Q1022 A3018 HR79 RWY NML =

SLSI

San Ignacio de Velasco

16-23S|60-57W

14:00

SLSI 241400Z 00000KT 9999 SCT017 26/23 Q1017 A3003 HR72 RWY NML =

SLCB

Cochabamba

17-25S|66-10W

14:00

SLCB 241400Z 24003KT 9000 FEW025 19/10 Q1030 A3044 755.8 HR57 CI FU NOSIG=

SLCN

Charaña

17-35S|69-25W

-

SLCN WO ATTN=

SLVR

Internaciónal Viru Viru

17-38S|63-08W

14:00

SLVR 241400Z 17013KT 9999 SCT070 BKN200 25/19 Q1019 A3011 HR67 NOSIG=

SLET

El Trompillo

17-48S|63-10W

14:00

SLET 241400Z 16012G22KT 9999 FEW017 SCT070 25/18 Q1019 A3011 HR63 NOSIG=

SLJE

San José de Chiquitos

17-49S|60-44W

14:00

SLJE 241400Z 12006KT 9999 SCT015 27/23 Q1019 A3009 HR79 RWY HUM OPR C210=

SLOR

Oruro

17-57S|67-04W

14:00

SLOR 241400Z 33006KT 9999 FEW015 SCT200 11/03 Q1039 A3069 658.8 HZ HR59=

SLRB

Roboré

18-19S|59-45W

14:00

SLRB 241400Z 00000KT 9999 FEW017 26/22 Q1021 A3015 HR81 RWY NML =

SLVG

Valle Grande

18-28S|64-05W

14:00

SLVG 241400Z 12005KT 9999 BKN023 BKN200 17/12 Q1030 A3042 HR68 RWY NML=

SLPS

Puerto Suárez

18-58S|57-49W

14:00

SLPS 241400Z 00000KT 9999 SCT017 30/23 Q1016 A3001 HR67=

SLSU

Sucre

19-00S|65-17W

14:00

SLSU 241400Z 08007KT 9999 FEW012 BKN015 13/10 Q1034 A3056 HR83=

SLPO

Potosí

19-32S|65-43W

14:00

SLPO 241400Z 00000KT 9999 NSC 10/02 Q1040 A3071 HR54=

SLAG

Monteagudo

19-49S|63-58W

14:00

COR SLAG 241400Z 00000KT 5000 BKN010 OVC070 19/18 Q1026 A3030 HR90 VIS RED ST BAJOS RWY CLSD=

SLCA

Camiri

20-00S|63-31W

14:00

SLCA 241400Z 00000KT 9999 OVC015 20/18 Q1024 A3024 HR87 RWY HUM OPR=

SLUY

Uyuni

20-27S|62-52W

14:00

SLUY 241400Z 32005KT 9999 FEW025 SCT200 09/M00 Q1037 A3064 660.7 HR79=

SLVM

Villamontes

21-15S|63-24W

14:00

SLVM 241400Z 00000KT 9999 BKN013 SCT023 BKN070 24/19 Q1022 A3018 HR76 PCPN SW=

SLTJ

Tarija

21-33S|64-42W

14:00

SLTJ 241400Z 00000KT 9999 FEW015 SCT027 OVC070 17/14 Q1026 A3031 HR81=

SLYA

Yacuiba

21-57S|63-39W

14:00

SLYA 241400Z 00000KT 9999 SCT017 OVC070 21/18 Q1023 A3021 HR83=

SLBJ

Bermejo

22-46S|64-18W

14:00

SLBJ 241400Z 36004KT 9999 SCT015 OVC070 20/20 Q1022 A3018 HR96=